Time;durP1;ratioP1;P1;durP2;ratioP2;P2;SDS_P1;SDS_P2;PMS_P1;PMS_P2;Temp;Humidity;BMP_temperature;BMP_pressure;BME280_temperature;BME280_humidity;BME280_pressure;Samples;Min_cycle;Max_cycle;Signal;HPM_P1;HPM_P2
2023/06/23 00:01:40;;;;;;;18.98;14.60;;;23.00;74.10;;;;;;4776231;30;20142;-92
2023/06/23 00:04:08;;;;;;;19.27;14.53;;;23.00;74.00;;;;;;4761695;30;20060;-92
2023/06/23 00:06:35;;;;;;;21.25;14.95;;;23.00;74.10;;;;;;4776410;30;20414;-92
2023/06/23 00:09:13;;;;;;;21.52;15.38;;;23.00;74.10;;;;;;4761777;30;20081;-92
2023/06/23 00:11:42;;;;;;;19.05;13.40;;;23.00;74.40;;;;;;4776482;30;20061;-92
2023/06/23 00:14:10;;;;;;;20.77;13.80;;;23.00;74.30;;;;;;4776369;30;20067;-92
2023/06/23 00:16:37;;;;;;;18.70;13.80;;;23.00;74.40;;;;;;4761858;30;20418;-94
2023/06/23 00:19:04;;;;;;;19.20;13.85;;;23.00;74.30;;;;;;4775995;30;20047;-93
2023/06/23 00:21:32;;;;;;;18.83;13.35;;;23.10;74.10;;;;;;4774846;30;20094;-92
2023/06/23 00:24:01;;;;;;;17.75;13.00;;;23.10;73.80;;;;;;4776107;30;20052;-92
2023/06/23 00:26:28;;;;;;;18.75;12.82;;;23.10;73.80;;;;;;4776248;30;20073;-94
2023/06/23 00:29:00;;;;;;;18.40;12.50;;;23.10;73.70;;;;;;4775973;30;20400;-94
2023/06/23 00:31:32;;;;;;;17.13;11.80;;;23.10;73.60;;;;;;4776115;30;20055;-94
2023/06/23 00:34:03;;;;;;;17.38;11.40;;;23.10;73.60;;;;;;4761298;30;20055;-94
2023/06/23 00:36:30;;;;;;;15.95;10.82;;;23.10;73.70;;;;;;4775857;30;20425;-93
2023/06/23 00:39:02;;;;;;;17.55;9.90;;;23.20;73.90;;;;;;4775963;30;20108;-93
2023/06/23 00:41:30;;;;;;;15.50;10.50;;;23.10;74.10;;;;;;4761951;30;20058;-93
2023/06/23 00:43:59;;;;;;;20.35;10.38;;;23.10;74.10;;;;;;4761329;30;20415;-93
2023/06/23 00:46:28;;;;;;;15.77;10.65;;;23.10;74.10;;;;;;4776081;30;20145;-93
2023/06/23 00:48:55;;;;;;;14.93;10.35;;;23.10;74.30;;;;;;4761079;30;20048;-93
2023/06/23 00:51:26;;;;;;;13.73;9.60;;;23.10;74.20;;;;;;4775809;30;20056;-94
2023/06/23 00:53:54;;;;;;;15.33;9.40;;;23.10;74.10;;;;;;4760715;30;20083;-93
2023/06/23 00:56:24;;;;;;;16.73;9.32;;;23.10;73.90;;;;;;4760846;30;20533;-93
2023/06/23 00:58:55;;;;;;;14.77;9.82;;;23.10;73.80;;;;;;4775383;30;20059;-93
2023/06/23 01:01:25;;;;;;;13.75;9.25;;;23.10;73.70;;;;;;4775406;30;20043;-93
2023/06/23 01:03:54;;;;;;;14.05;9.45;;;23.20;73.60;;;;;;4760498;30;20150;-91
2023/06/23 01:06:31;;;;;;;17.70;9.27;;;23.20;73.40;;;;;;4760674;30;20413;-92
2023/06/23 01:09:13;;;;;;;14.50;9.68;;;23.20;73.40;;;;;;4775749;30;20058;-94
2023/06/23 01:12:06;;;;;;;13.75;9.10;;;23.10;73.40;;;;;;4775259;30;20062;-92
2023/06/23 01:15:04;;;;;;;15.15;9.82;;;23.10;73.10;;;;;;4775126;30;20055;-92
2023/06/23 01:18:00;;;;;;;14.73;9.50;;;23.10;73.20;;;;;;4774721;30;20051;-92
2023/06/23 01:20:35;;;;;;;15.27;9.40;;;23.10;73.20;;;;;;4759932;30;20426;-92
2023/06/23 01:23:20;;;;;;;16.38;10.10;;;23.10;73.30;;;;;;4775087;30;20142;-93
2023/06/23 01:26:09;;;;;;;13.82;9.70;;;23.10;73.50;;;;;;4760216;30;20071;-91
2023/06/23 01:28:50;;;;;;;16.10;9.68;;;23.00;73.40;;;;;;4775264;30;20054;-92
2023/06/23 01:31:36;;;;;;;15.82;9.48;;;23.00;73.50;;;;;;4775073;30;20522;-93
2023/06/23 01:34:08;;;;;;;16.13;9.50;;;23.00;73.60;;;;;;4774892;30;20051;-92
2023/06/23 01:36:44;;;;;;;15.38;9.50;;;23.00;73.50;;;;;;4774711;30;20124;-93
2023/06/23 01:39:17;;;;;;;12.57;8.85;;;23.00;73.40;;;;;;4774483;30;20055;-92
2023/06/23 01:41:49;;;;;;;13.70;8.85;;;23.00;73.60;;;;;;4774548;30;20062;-92
2023/06/23 01:44:19;;;;;;;14.18;8.70;;;23.00;73.50;;;;;;4759964;30;20055;-92
2023/06/23 01:46:55;;;;;;;14.07;8.43;;;23.00;73.30;;;;;;4759884;30;20515;-94
2023/06/23 01:49:36;;;;;;;15.43;8.77;;;23.10;73.20;;;;;;4759911;30;20056;-92
2023/06/23 01:52:06;;;;;;;14.38;9.38;;;23.10;73.20;;;;;;4774183;30;20075;-92
2023/06/23 01:54:38;;;;;;;16.52;9.52;;;23.10;73.20;;;;;;4759559;30;20051;-93
2023/06/23 01:57:12;;;;;;;16.30;9.65;;;23.10;73.30;;;;;;4774443;30;20058;-93
2023/06/23 01:59:42;;;;;;;17.20;9.90;;;23.10;73.00;;;;;;4759478;30;20495;-94
2023/06/23 02:02:13;;;;;;;19.70;9.95;;;23.20;72.80;;;;;;4759980;30;20051;-93
2023/06/23 02:04:44;;;;;;;17.92;9.82;;;23.30;72.60;;;;;;4759239;30;20065;-94
2023/06/23 02:07:14;;;;;;;14.48;8.85;;;23.30;72.90;;;;;;4774024;30;20052;-94
2023/06/23 02:09:46;;;;;;;17.23;9.05;;;23.30;72.70;;;;;;4774177;30;20052;-93
2023/06/23 02:12:16;;;;;;;14.53;8.70;;;23.30;72.70;;;;;;4774446;30;20055;-94
2023/06/23 02:14:54;;;;;;;15.60;8.68;;;23.30;72.80;;;;;;4759412;30;20525;-93
2023/06/23 02:17:22;;;;;;;15.85;9.10;;;23.40;72.90;;;;;;4759139;30;20510;-93
2023/06/23 02:19:53;;;;;;;15.00;8.68;;;23.40;72.70;;;;;;4758949;30;20086;-93
2023/06/23 02:22:23;;;;;;;13.75;8.50;;;23.40;72.60;;;;;;4773735;30;20055;-93
2023/06/23 02:24:56;;;;;;;12.53;8.33;;;23.40;72.30;;;;;;4759958;30;20059;-93
2023/06/23 02:27:24;;;;;;;15.13;8.73;;;23.40;72.30;;;;;;4758919;30;20090;-93
2023/06/23 02:29:56;;;;;;;14.27;8.82;;;23.50;72.50;;;;;;4773705;30;20422;-93
2023/06/23 02:32:25;;;;;;;14.85;9.13;;;23.40;72.40;;;;;;4759239;30;20051;-92
2023/06/23 02:34:57;;;;;;;14.20;8.38;;;23.40;72.30;;;;;;4774006;30;20053;-93
2023/06/23 02:37:29;;;;;;;15.50;8.63;;;23.50;72.30;;;;;;4773276;30;20079;-93
2023/06/23 02:40:11;;;;;;;12.55;8.43;;;23.50;72.30;;;;;;4773582;30;20051;-92
2023/06/23 02:42:52;;;;;;;13.32;8.52;;;23.60;72.10;;;;;;4773793;30;20048;-93
2023/06/23 02:45:24;;;;;;;14.32;8.23;;;23.60;72.30;;;;;;4758321;30;20051;-93
2023/06/23 02:47:58;;;;;;;13.50;8.30;;;23.50;72.80;;;;;;4774215;30;20124;-93
2023/06/23 02:50:33;;;;;;;14.90;9.47;;;23.50;72.60;;;;;;4759030;30;20055;-93
2023/06/23 02:53:10;;;;;;;12.35;8.43;;;23.50;72.70;;;;;;4758962;30;20073;-93
2023/06/23 02:55:44;;;;;;;18.95;8.13;;;23.50;72.60;;;;;;4773867;30;20532;-94
2023/06/23 02:58:15;;;;;;;13.70;8.35;;;23.50;72.70;;;;;;4773909;30;20051;-91
2023/06/23 03:00:43;;;;;;;16.75;9.02;;;23.50;72.40;;;;;;4758872;30;20074;-92
2023/06/23 03:03:14;;;;;;;15.67;8.70;;;23.60;72.40;;;;;;4759010;30;20151;-91
2023/06/23 03:05:43;;;;;;;16.98;8.95;;;23.70;72.20;;;;;;4759182;30;20382;-92
2023/06/23 03:08:10;;;;;;;14.85;8.88;;;23.60;72.70;;;;;;4759197;30;20827;-92
2023/06/23 03:10:39;;;;;;;13.07;8.50;;;23.70;72.40;;;;;;4773713;30;20072;-93
2023/06/23 03:13:08;;;;;;;15.05;8.93;;;23.70;72.50;;;;;;4758977;30;20089;-93
2023/06/23 03:15:36;;;;;;;21.57;10.40;;;23.70;72.60;;;;;;4773758;30;20568;-94
2023/06/23 03:18:15;;;;;;;18.40;10.30;;;23.70;72.40;;;;;;4773453;30;20051;-92
2023/06/23 03:20:52;;;;;;;18.15;10.18;;;23.80;72.60;;;;;;4773412;30;20051;-92
2023/06/23 03:23:23;;;;;;;19.25;9.32;;;23.90;72.00;;;;;;4773469;30;20079;-91
2023/06/23 03:25:52;;;;;;;18.85;9.15;;;24.00;71.90;;;;;;4759110;30;20507;-92
2023/06/23 03:28:25;;;;;;;14.73;8.53;;;24.10;71.90;;;;;;4758281;30;20047;-92
2023/06/23 03:31:00;;;;;;;14.68;8.73;;;24.10;71.90;;;;;;4772998;30;20498;-92
2023/06/23 03:33:34;;;;;;;15.68;8.35;;;24.10;71.70;;;;;;4773233;30;20143;-92
2023/06/23 03:36:14;;;;;;;15.13;8.82;;;24.10;71.60;;;;;;4772867;30;20150;-93
2023/06/23 03:38:57;;;;;;;15.02;8.20;;;24.10;71.80;;;;;;4773554;30;20545;-92
2023/06/23 03:41:30;;;;;;;15.63;8.13;;;24.20;71.40;;;;;;4772930;30;20054;-93
2023/06/23 03:44:20;;;;;;;14.43;8.65;;;24.30;71.30;;;;;;4773225;30;20443;-92
2023/06/23 03:46:59;;;;;;;14.23;8.98;;;24.30;71.70;;;;;;4773345;30;20051;-94
2023/06/23 03:49:32;;;;;;;14.70;8.23;;;24.30;71.60;;;;;;4773028;30;20052;-93
2023/06/23 03:52:02;;;;;;;15.40;9.88;;;24.30;71.60;;;;;;4773420;30;20090;-93
2023/06/23 03:54:31;;;;;;;18.10;9.60;;;24.40;71.50;;;;;;4773415;30;20047;-92
2023/06/23 03:57:03;;;;;;;19.88;9.20;;;24.40;71.60;;;;;;4773838;29;20535;-91
2023/06/23 03:59:31;;;;;;;17.02;9.73;;;24.40;71.50;;;;;;4793903;29;20055;-91
2023/06/23 04:02:04;;;;;;;20.77;9.73;;;24.50;71.40;;;;;;4778752;29;20057;-92
2023/06/23 04:04:32;;;;;;;15.60;9.02;;;24.50;71.30;;;;;;4794005;29;20061;-92
2023/06/23 04:07:00;;;;;;;18.60;9.03;;;24.60;71.30;;;;;;4794009;29;20107;-92
2023/06/23 04:09:29;;;;;;;12.40;8.80;;;24.60;71.10;;;;;;4793819;29;20054;-91
2023/06/23 04:11:58;;;;;;;17.35;9.82;;;24.60;71.20;;;;;;4793779;29;20108;-92
2023/06/23 04:14:27;;;;;;;13.75;8.82;;;24.60;71.40;;;;;;4793531;29;20054;-92
2023/06/23 04:16:56;;;;;;;16.15;9.48;;;24.60;71.40;;;;;;4778937;29;20167;-92
2023/06/23 04:19:28;;;;;;;15.00;9.60;;;24.70;71.50;;;;;;4793432;29;20050;-91
2023/06/23 04:21:57;;;;;;;14.00;8.63;;;24.80;71.50;;;;;;4793555;29;20061;-91
2023/06/23 04:24:30;;;;;;;16.60;9.10;;;24.80;70.90;;;;;;4793324;29;20050;-92
2023/06/23 04:26:58;;;;;;;15.68;9.20;;;24.80;70.80;;;;;;4793476;29;20047;-92
2023/06/23 04:29:28;;;;;;;15.75;10.02;;;24.90;71.00;;;;;;4779120;29;20051;-92
2023/06/23 04:31:56;;;;;;;15.07;9.07;;;25.00;70.90;;;;;;4793259;29;20498;-92
2023/06/23 04:34:23;;;;;;;14.68;9.40;;;25.10;70.90;;;;;;4793267;29;20426;-90
2023/06/23 04:37:21;;;;;;;16.15;9.80;;;25.10;70.70;;;;;;4775391;30;20082;-93
2023/06/23 04:39:56;;;;;;;14.23;10.48;;;25.20;70.60;;;;;;4775546;30;20452;-91
2023/06/23 04:42:51;;;;;;;15.98;9.63;;;25.30;70.60;;;;;;4775124;30;20151;-93
2023/06/23 04:45:24;;;;;;;15.73;9.30;;;25.40;70.00;;;;;;4765581;29;20043;-91
2023/06/23 04:48:01;;;;;;;15.55;10.23;;;25.60;70.00;;;;;;4777188;29;20050;-91
2023/06/23 04:50:33;;;;;;;16.40;9.85;;;25.70;69.30;;;;;;4793510;29;20069;-92
2023/06/23 04:53:14;;;;;;;17.33;10.02;;;25.80;69.70;;;;;;4793040;29;20055;-90
2023/06/23 04:55:47;;;;;;;17.08;10.95;;;25.90;69.20;;;;;;4793363;29;20570;-91
2023/06/23 04:58:17;;;;;;;17.03;10.00;;;26.00;69.30;;;;;;4792710;29;20054;-90
2023/06/23 05:00:45;;;;;;;16.88;10.30;;;25.90;69.10;;;;;;4792844;29;20061;-88
2023/06/23 05:03:14;;;;;;;15.57;10.20;;;25.80;69.50;;;;;;4778648;30;20070;-90
2023/06/23 05:05:43;;;;;;;16.17;10.25;;;25.70;70.10;;;;;;4778174;29;20054;-90
2023/06/23 05:08:13;;;;;;;23.20;15.23;;;25.60;70.20;;;;;;4777662;29;20066;-90
2023/06/23 05:10:41;;;;;;;21.43;12.67;;;25.50;70.60;;;;;;4775119;30;20062;-91
2023/06/23 05:13:11;;;;;;;22.65;11.65;;;25.40;71.10;;;;;;4760131;30;20146;-91
2023/06/23 05:15:38;;;;;;;19.95;11.43;;;25.40;70.80;;;;;;4774546;30;20047;-90
2023/06/23 05:18:07;;;;;;;21.15;12.55;;;25.30;71.50;;;;;;4774613;30;20053;-90
2023/06/23 05:20:38;;;;;;;20.88;12.57;;;25.10;71.70;;;;;;4774607;30;20051;-90
2023/06/23 05:23:07;;;;;;;23.33;13.40;;;24.90;72.40;;;;;;4775218;30;20051;-90
2023/06/23 05:25:36;;;;;;;24.13;13.35;;;24.60;73.80;;;;;;4760303;30;20051;-90
2023/06/23 05:28:05;;;;;;;22.45;14.25;;;24.40;74.60;;;;;;4777824;29;20108;-92
2023/06/23 05:30:36;;;;;;;24.83;15.90;;;24.30;76.10;;;;;;4792989;29;20096;-91
2023/06/23 05:33:07;;;;;;;22.33;14.50;;;24.30;77.20;;;;;;4763079;29;20043;-88
2023/06/23 05:35:37;;;;;;;24.47;15.00;;;24.30;77.60;;;;;;4763843;30;20043;-89
2023/06/23 05:38:06;;;;;;;23.92;14.68;;;24.30;77.60;;;;;;4757240;30;20123;-89
2023/06/23 05:40:34;;;;;;;25.52;15.32;;;24.20;77.60;;;;;;4757281;30;20063;-90
2023/06/23 05:43:01;;;;;;;25.95;15.90;;;24.20;78.00;;;;;;4771481;30;20083;-90
2023/06/23 05:45:29;;;;;;;25.25;16.27;;;24.10;77.90;;;;;;4771207;30;20051;-90
2023/06/23 05:48:04;;;;;;;24.20;17.47;;;24.10;78.20;;;;;;4756491;30;20142;-90
2023/06/23 05:50:35;;;;;;;23.75;16.77;;;24.10;78.60;;;;;;4756907;30;20052;-90
2023/06/23 05:53:16;;;;;;;25.48;17.25;;;24.10;78.70;;;;;;4757298;30;20442;-90
2023/06/23 05:55:53;;;;;;;28.55;18.25;;;24.10;79.00;;;;;;4757250;30;20572;-91
2023/06/23 05:58:26;;;;;;;25.52;17.52;;;24.00;79.50;;;;;;4759315;30;20494;-91
2023/06/23 06:00:56;;;;;;;24.03;17.27;;;24.00;79.90;;;;;;4759609;29;20047;-91
2023/06/23 06:03:29;;;;;;;24.48;17.15;;;23.90;80.10;;;;;;4760016;30;20120;-90
2023/06/23 06:06:00;;;;;;;25.02;17.58;;;24.00;79.80;;;;;;4759512;29;20047;-91
2023/06/23 06:08:28;;;;;;;27.15;18.35;;;24.00;80.40;;;;;;4759424;30;20055;-90
2023/06/23 06:10:58;;;;;;;28.25;17.63;;;24.00;80.60;;;;;;4759659;29;20043;-93
2023/06/23 06:13:27;;;;;;;24.13;17.00;;;23.90;80.50;;;;;;4760018;30;20051;-94
2023/06/23 06:15:56;;;;;;;24.60;17.02;;;23.90;80.40;;;;;;4759503;29;20104;-93
2023/06/23 06:18:24;;;;;;;24.35;18.38;;;23.80;80.60;;;;;;4759467;30;20575;-93
2023/06/23 06:20:58;;;;;;;30.15;21.08;;;23.80;81.00;;;;;;4774446;29;20055;-94
2023/06/23 06:23:26;;;;;;;33.92;22.48;;;23.80;80.90;;;;;;4774683;30;20065;-93
2023/06/23 06:25:54;;;;;;;35.20;24.07;;;23.80;81.10;;;;;;4759824;30;20130;-92
2023/06/23 06:28:25;;;;;;;35.10;24.08;;;23.70;81.50;;;;;;4774174;30;20577;-93
2023/06/23 06:30:55;;;;;;;41.55;26.38;;;23.70;81.30;;;;;;4759781;29;20063;-92
2023/06/23 06:33:23;;;;;;;39.20;25.73;;;23.80;81.40;;;;;;4759478;30;20055;-93
2023/06/23 06:35:52;;;;;;;39.90;25.02;;;23.70;81.50;;;;;;4758913;30;20047;-92
2023/06/23 06:38:21;;;;;;;41.40;27.07;;;23.70;81.50;;;;;;4759951;29;20494;-93
2023/06/23 06:40:53;;;;;;;39.88;26.05;;;23.60;81.20;;;;;;4759880;30;20383;-92
2023/06/23 06:43:23;;;;;;;36.47;25.45;;;23.60;81.30;;;;;;4759664;30;20055;-93
2023/06/23 06:45:51;;;;;;;39.97;24.08;;;23.70;81.40;;;;;;4759524;30;20055;-93
2023/06/23 06:48:20;;;;;;;33.63;22.60;;;23.80;81.30;;;;;;4758962;29;20052;-91
2023/06/23 06:50:48;;;;;;;30.73;20.57;;;23.80;81.60;;;;;;4759197;30;20082;-91
2023/06/23 06:53:17;;;;;;;33.40;19.50;;;23.90;81.30;;;;;;4759044;29;20133;-92
2023/06/23 06:55:45;;;;;;;26.77;19.10;;;24.00;81.10;;;;;;4773570;30;20108;-92
2023/06/23 06:58:12;;;;;;;28.73;18.83;;;24.00;81.10;;;;;;4759214;29;20470;-92
2023/06/23 07:00:52;;;;;;;23.95;16.92;;;24.00;81.00;;;;;;4759517;30;20055;-89
2023/06/23 07:03:20;;;;;;;23.67;16.67;;;24.10;80.60;;;;;;4775492;29;20051;-92
2023/06/23 07:05:47;;;;;;;25.13;16.65;;;24.10;80.90;;;;;;4776745;30;20518;-91
2023/06/23 07:08:14;;;;;;;25.40;16.55;;;24.30;80.50;;;;;;4789799;29;20038;-92
2023/06/23 07:10:42;;;;;;;21.15;15.40;;;24.50;80.50;;;;;;4787075;30;20142;-94
2023/06/23 07:17:40;;;;;;;24.63;15.57;;;24.60;79.30;;;;;;4789939;30;20034;-95
2023/06/23 07:20:08;;;;;;;23.92;15.45;;;24.70;80.00;;;;;;4773456;30;20105;-95
2023/06/23 07:22:36;;;;;;;24.40;16.58;;;24.80;80.00;;;;;;4773633;30;20043;-94
2023/06/23 07:25:04;;;;;;;21.30;15.98;;;24.90;79.70;;;;;;4773437;30;20051;-95
2023/06/23 07:27:31;;;;;;;23.42;15.75;;;25.10;79.50;;;;;;4773549;30;20047;-95
2023/06/23 07:29:58;;;;;;;24.53;16.70;;;25.20;79.10;;;;;;4773642;30;20051;-94
2023/06/23 07:32:26;;;;;;;22.30;15.60;;;25.30;78.70;;;;;;4762288;30;20089;-95
2023/06/23 07:34:53;;;;;;;21.65;14.70;;;25.30;77.70;;;;;;4762034;30;20150;-95
2023/06/23 07:37:21;;;;;;;24.25;16.20;;;25.30;77.60;;;;;;4776489;30;20055;-95
2023/06/23 07:39:48;;;;;;;21.02;15.80;;;25.40;77.60;;;;;;4776766;30;20116;-94
2023/06/23 07:42:15;;;;;;;20.43;14.70;;;25.50;77.10;;;;;;4776418;30;20502;-94
2023/06/23 07:44:43;;;;;;;21.60;15.95;;;25.60;77.40;;;;;;4762022;30;20059;-94
2023/06/23 07:47:11;;;;;;;32.90;17.40;;;25.80;77.00;;;;;;4776460;30;20492;-94
2023/06/23 07:49:41;;;;;;;51.65;20.88;;;26.00;77.00;;;;;;4776690;30;20152;-94
2023/06/23 07:52:12;;;;;;;76.15;25.20;;;26.20;77.10;;;;;;4776733;30;20059;-96
2023/06/23 07:54:49;;;;;;;69.10;26.17;;;26.40;76.10;;;;;;4776396;30;20054;-95
2023/06/23 07:57:16;;;;;;;57.08;22.45;;;26.60;75.60;;;;;;4776126;30;20059;-95
2023/06/23 07:59:44;;;;;;;34.03;18.33;;;26.80;75.30;;;;;;4776313;30;20118;-95
2023/06/23 08:02:11;;;;;;;27.83;16.05;;;27.00;74.60;;;;;;4761427;30;20460;-95
2023/06/23 08:04:40;;;;;;;25.70;15.85;;;27.20;73.10;;;;;;4761564;30;20063;-92
2023/06/23 08:07:07;;;;;;;19.47;15.10;;;27.40;72.00;;;;;;4776207;30;20062;-93
2023/06/23 08:09:35;;;;;;;26.63;15.93;;;27.50;71.30;;;;;;4761495;30;20051;-93
2023/06/23 08:12:05;;;;;;;20.15;15.73;;;27.60;70.80;;;;;;4776244;30;20056;-93
2023/06/23 08:14:32;;;;;;;20.80;15.10;;;27.70;71.00;;;;;;4776475;30;20055;-92
2023/06/23 08:17:01;;;;;;;19.63;15.85;;;27.70;70.40;;;;;;4761350;30;20077;-93
2023/06/23 08:19:30;;;;;;;22.43;14.73;;;27.70;71.20;;;;;;4761303;30;20506;-93
2023/06/23 08:21:57;;;;;;;23.13;15.20;;;27.80;70.90;;;;;;4761188;30;20414;-92
2023/06/23 08:24:27;;;;;;;20.17;15.32;;;27.80;71.50;;;;;;4775740;30;20146;-91
2023/06/23 08:26:54;;;;;;;16.83;14.00;;;27.90;71.30;;;;;;4776470;30;20043;-92
2023/06/23 08:29:25;;;;;;;19.77;14.48;;;27.90;70.40;;;;;;4776057;30;20055;-94
2023/06/23 08:31:52;;;;;;;19.30;13.80;;;28.00;70.00;;;;;;4776092;30;20063;-92
2023/06/23 08:34:20;;;;;;;21.45;13.30;;;28.10;70.00;;;;;;4782146;30;20109;-93
2023/06/23 08:36:47;;;;;;;19.67;13.55;;;28.10;70.20;;;;;;4775969;30;20062;-93
2023/06/23 08:39:14;;;;;;;19.35;13.13;;;28.30;68.80;;;;;;4782927;29;20104;-89
2023/06/23 08:41:42;;;;;;;20.00;13.27;;;28.30;67.10;;;;;;4782303;29;20051;-89
2023/06/23 08:44:15;;;;;;;18.23;12.57;;;28.40;67.60;;;;;;4783181;30;20073;-90
2023/06/23 08:46:43;;;;;;;16.13;10.15;;;28.40;66.00;;;;;;4790440;29;20059;-90
2023/06/23 08:49:32;;;;;;;16.90;10.30;;;28.50;63.40;;;;;;4784988;30;20131;-90
2023/06/23 08:51:59;;;;;;;17.80;9.38;;;28.60;63.40;;;;;;4789088;29;20141;-91
2023/06/23 08:54:27;;;;;;;17.23;9.40;;;28.60;61.90;;;;;;4793363;29;20061;-92
2023/06/23 08:56:55;;;;;;;15.17;9.10;;;28.60;60.80;;;;;;4793449;29;20078;-95
2023/06/23 08:59:22;;;;;;;15.43;9.35;;;28.60;61.10;;;;;;4793265;29;20055;-95
2023/06/23 09:01:50;;;;;;;13.20;10.00;;;28.60;62.30;;;;;;4793189;29;20104;-94
2023/06/23 09:04:21;;;;;;;15.85;9.50;;;28.70;62.40;;;;;;4793176;29;20084;-94
2023/06/23 09:06:48;;;;;;;17.05;9.80;;;28.90;62.90;;;;;;4793294;29;20047;-94
2023/06/23 09:09:16;;;;;;;14.20;9.30;;;29.00;62.00;;;;;;4793636;29;20051;-94
2023/06/23 09:11:43;;;;;;;16.10;9.77;;;29.10;61.10;;;;;;4793683;29;20096;-95
2023/06/23 09:14:11;;;;;;;18.40;11.00;;;29.20;61.80;;;;;;4778356;29;20051;-94
2023/06/23 09:16:40;;;;;;;17.55;10.82;;;29.30;61.30;;;;;;4793295;29;20567;-94
2023/06/23 09:19:09;;;;;;;14.80;9.85;;;29.40;61.10;;;;;;4793257;29;20171;-94
2023/06/23 09:21:37;;;;;;;14.93;9.47;;;29.40;62.20;;;;;;4793156;29;20099;-94
2023/06/23 09:24:06;;;;;;;14.82;9.50;;;29.50;60.70;;;;;;4778322;29;20108;-94
2023/06/23 09:26:48;;;;;;;15.15;9.75;;;29.60;59.60;;;;;;4792864;29;20051;-94
2023/06/23 09:29:21;;;;;;;17.48;9.88;;;29.60;58.50;;;;;;4778288;29;20142;-94
2023/06/23 09:31:50;;;;;;;18.08;9.45;;;29.60;58.70;;;;;;4793072;29;20047;-94
2023/06/23 09:34:26;;;;;;;15.90;10.40;;;29.60;58.90;;;;;;4793192;29;20051;-94
2023/06/23 09:37:11;;;;;;;15.65;9.57;;;29.70;59.90;;;;;;4778176;29;20050;-95
2023/06/23 09:39:48;;;;;;;17.27;9.55;;;29.80;60.70;;;;;;4792818;29;20502;-94
2023/06/23 09:42:16;;;;;;;17.55;9.38;;;29.80;60.60;;;;;;4780680;30;20055;-92
2023/06/23 09:45:42;;;;;;;17.23;9.35;;;29.70;61.00;;;;;;4768313;29;20538;-95
2023/06/23 09:48:17;;;;;;;17.30;9.20;;;29.80;60.20;;;;;;4724317;30;20147;-94
2023/06/23 09:50:58;;;;;;;14.00;8.88;;;29.60;60.00;;;;;;4773829;30;20051;-94
2023/06/23 09:53:26;;;;;;;14.02;8.05;;;29.60;58.20;;;;;;4778433;29;20051;-94
2023/06/23 09:55:53;;;;;;;16.70;8.93;;;29.50;58.60;;;;;;4777308;30;20124;-94
2023/06/23 09:58:21;;;;;;;13.00;8.05;;;29.60;59.60;;;;;;4767060;30;20058;-95
2023/06/23 10:00:48;;;;;;;14.93;8.67;;;29.60;60.30;;;;;;4770661;29;20055;-94
2023/06/23 10:03:15;;;;;;;14.13;7.72;;;29.70;59.50;;;;;;4774327;30;20135;-91
2023/06/23 10:05:43;;;;;;;13.98;7.28;;;29.90;57.10;;;;;;4766962;29;20062;-91
2023/06/23 10:08:13;;;;;;;12.57;6.85;;;30.10;56.60;;;;;;4784627;29;20051;-92
2023/06/23 10:10:44;;;;;;;14.20;6.78;;;30.10;56.20;;;;;;4784386;29;20051;-92
2023/06/23 10:13:12;;;;;;;10.73;6.07;;;30.10;55.90;;;;;;4777058;30;20047;-92
2023/06/23 10:15:42;;;;;;;14.07;6.80;;;30.10;56.00;;;;;;4771679;29;20107;-92
2023/06/23 10:18:12;;;;;;;12.80;5.57;;;30.30;56.40;;;;;;4777442;29;20054;-93
2023/06/23 10:20:40;;;;;;;14.23;5.88;;;30.30;53.80;;;;;;4784215;29;20085;-91
2023/06/23 10:23:10;;;;;;;11.27;5.53;;;30.20;54.20;;;;;;4783750;29;20055;-93
2023/06/23 10:25:38;;;;;;;11.57;4.73;;;30.10;52.50;;;;;;4788947;29;20058;-92
2023/06/23 10:28:10;;;;;;;9.90;4.88;;;30.20;52.50;;;;;;4780397;29;20054;-92
2023/06/23 10:30:41;;;;;;;10.70;5.15;;;30.40;52.70;;;;;;4789074;29;20043;-92
2023/06/23 10:33:18;;;;;;;12.48;5.80;;;30.60;52.70;;;;;;4791574;29;20061;-92
2023/06/23 10:35:48;;;;;;;11.10;5.57;;;30.50;51.20;;;;;;4786027;30;20150;-92
2023/06/23 10:38:21;;;;;;;9.17;4.77;;;30.50;52.20;;;;;;4776057;30;20105;-92
2023/06/23 10:40:58;;;;;;;9.55;5.13;;;30.50;51.50;;;;;;4782177;29;20502;-92
2023/06/23 10:43:31;;;;;;;10.23;4.82;;;30.40;50.90;;;;;;4781112;29;20061;-92
2023/06/23 10:46:00;;;;;;;10.60;4.65;;;30.20;50.00;;;;;;4777529;30;20529;-94
2023/06/23 10:48:28;;;;;;;8.75;4.30;;;30.10;50.90;;;;;;4772071;29;20051;-93
2023/06/23 10:50:56;;;;;;;11.40;5.17;;;30.00;51.40;;;;;;4781216;29;20383;-94
2023/06/23 10:53:31;;;;;;;15.10;5.82;;;29.70;50.80;;;;;;4775113;29;20131;-95
2023/06/23 10:55:59;;;;;;;12.00;6.47;;;29.60;52.30;;;;;;4767197;29;20051;-94
2023/06/23 10:58:52;;;;;;;12.55;5.88;;;29.50;53.80;;;;;;4785224;29;20147;-94
2023/06/23 11:01:19;;;;;;;14.45;6.30;;;29.50;52.90;;;;;;4778764;29;20055;-94
2023/06/23 11:04:00;;;;;;;11.27;6.57;;;29.30;53.60;;;;;;4784562;29;20054;-93
2023/06/23 11:06:35;;;;;;;12.60;5.78;;;29.10;53.70;;;;;;4787776;29;20043;-93
2023/06/23 11:09:25;;;;;;;11.73;5.75;;;29.10;53.70;;;;;;4791876;29;20073;-93
2023/06/23 11:11:59;;;;;;;10.25;6.00;;;29.10;54.30;;;;;;4780401;29;20103;-93
2023/06/23 11:14:26;;;;;;;10.82;6.15;;;29.00;54.70;;;;;;4779395;30;20068;-93
2023/06/23 11:16:53;;;;;;;11.17;6.47;;;29.00;54.70;;;;;;4773561;30;20075;-94
2023/06/23 11:19:28;;;;;;;13.77;6.32;;;29.00;55.20;;;;;;4767702;29;20046;-93
2023/06/23 11:22:08;;;;;;;13.13;6.63;;;29.00;55.10;;;;;;4781683;29;20043;-94
2023/06/23 11:24:35;;;;;;;11.45;7.03;;;29.00;56.20;;;;;;4783094;29;20046;-93
2023/06/23 11:27:03;;;;;;;14.65;7.00;;;28.90;56.50;;;;;;4781110;29;20047;-94
2023/06/23 11:29:31;;;;;;;14.30;6.60;;;29.00;56.50;;;;;;4775969;30;20058;-93
2023/06/23 11:32:05;;;;;;;11.48;6.72;;;29.10;56.10;;;;;;4778476;29;20078;-94
2023/06/23 11:34:49;;;;;;;12.15;7.20;;;29.30;55.40;;;;;;4782901;29;20065;-94
2023/06/23 11:37:17;;;;;;;12.73;7.05;;;29.60;55.70;;;;;;4781698;29;20047;-93
2023/06/23 11:39:45;;;;;;;14.05;6.13;;;29.80;54.80;;;;;;4776257;29;20048;-93
2023/06/23 11:42:12;;;;;;;10.70;5.60;;;30.10;55.20;;;;;;4788286;29;20135;-93
2023/06/23 11:44:39;;;;;;;14.23;5.95;;;30.50;54.70;;;;;;4775707;30;20051;-94
2023/06/23 11:47:06;;;;;;;13.73;5.43;;;30.70;54.30;;;;;;4773497;29;20054;-94
2023/06/23 11:49:36;;;;;;;11.38;5.57;;;30.70;51.30;;;;;;4763448;30;20139;-93
2023/06/23 11:52:04;;;;;;;10.73;5.85;;;30.80;53.80;;;;;;4776841;29;20555;-93
2023/06/23 11:54:35;;;;;;;11.70;5.67;;;30.60;53.70;;;;;;4772575;30;20487;-93
2023/06/23 11:57:03;;;;;;;11.70;5.28;;;30.50;52.90;;;;;;4780972;29;20052;-93
2023/06/23 11:59:37;;;;;;;13.20;5.57;;;30.40;52.70;;;;;;4781073;29;20047;-94
2023/06/23 12:02:06;;;;;;;13.25;5.38;;;30.30;53.50;;;;;;4777072;29;20055;-94
2023/06/23 12:04:34;;;;;;;11.10;4.75;;;30.30;53.20;;;;;;4784217;29;20055;-91
2023/06/23 12:07:04;;;;;;;9.93;4.43;;;30.10;51.90;;;;;;4780937;29;20104;-91
2023/06/23 12:09:32;;;;;;;9.30;4.47;;;30.10;53.20;;;;;;4783412;29;20406;-91
2023/06/23 12:11:59;;;;;;;10.07;4.20;;;30.10;53.50;;;;;;4782691;30;20044;-90
2023/06/23 12:14:31;;;;;;;10.38;4.07;;;30.00;53.40;;;;;;4786034;29;20069;-91
2023/06/23 12:17:06;;;;;;;10.50;3.75;;;29.90;52.60;;;;;;4781583;29;20047;-90
2023/06/23 12:19:34;;;;;;;12.57;4.00;;;29.80;52.40;;;;;;4778437;29;20501;-90
2023/06/23 12:22:02;;;;;;;9.98;3.95;;;29.70;53.70;;;;;;4762019;29;20126;-91
2023/06/23 12:24:30;;;;;;;8.00;3.97;;;29.80;52.90;;;;;;4784146;29;20054;-91
2023/06/23 12:27:00;;;;;;;8.75;3.17;;;29.90;53.10;;;;;;4779158;30;20133;-91
2023/06/23 12:29:33;;;;;;;8.63;3.45;;;30.10;52.60;;;;;;4784864;29;20047;-92
2023/06/23 12:32:02;;;;;;;9.00;3.43;;;30.10;51.60;;;;;;4774008;30;20075;-91
2023/06/23 12:34:41;;;;;;;9.27;3.63;;;30.10;51.70;;;;;;4779669;29;20063;-91
2023/06/23 12:37:17;;;;;;;9.40;3.65;;;30.10;51.90;;;;;;4769632;29;20089;-91
2023/06/23 12:39:52;;;;;;;7.75;3.10;;;30.40;52.10;;;;;;4776561;29;20051;-91
2023/06/23 12:42:20;;;;;;;8.95;3.10;;;30.60;51.00;;;;;;4779327;29;20055;-91
2023/06/23 12:44:49;;;;;;;10.07;3.30;;;30.60;50.50;;;;;;4766831;29;21829;-92
2023/06/23 12:47:18;;;;;;;9.93;3.38;;;30.60;51.80;;;;;;4767860;29;20084;-91
2023/06/23 12:49:45;;;;;;;10.15;2.90;;;30.60;52.50;;;;;;4768466;29;20071;-92
2023/06/23 12:52:13;;;;;;;9.35;2.95;;;30.70;52.00;;;;;;4787519;29;20051;-92
2023/06/23 12:54:40;;;;;;;10.10;2.95;;;30.80;52.30;;;;;;4782755;29;20073;-92
2023/06/23 12:57:09;;;;;;;7.73;3.13;;;30.80;52.10;;;;;;4767979;29;20191;-92
2023/06/23 12:59:36;;;;;;;10.13;3.53;;;31.00;51.70;;;;;;4782549;29;20063;-92